sensor_id;sensor_type;location;lat;lon;timestamp;pressure;altitude;pressure_sealevel;temperature;humidity
54361;BME280;40258;53.936;27.540;2022-08-19T00:01:58;99356.34;;;19.80;88.83
54361;BME280;40258;53.936;27.540;2022-08-19T00:04:31;99357.09;;;19.77;88.72
54361;BME280;40258;53.936;27.540;2022-08-19T00:07:06;99357.81;;;19.73;88.83
54361;BME280;40258;53.936;27.540;2022-08-19T00:09:35;99352.69;;;19.72;89.06
54361;BME280;40258;53.936;27.540;2022-08-19T00:12:04;99351.94;;;19.75;89.42
54361;BME280;40258;53.936;27.540;2022-08-19T00:14:32;99355.06;;;19.73;89.91
54361;BME280;40258;53.936;27.540;2022-08-19T00:17:02;99349.16;;;19.71;90.82
54361;BME280;40258;53.936;27.540;2022-08-19T00:19:31;99346.03;;;19.73;90.73
54361;BME280;40258;53.936;27.540;2022-08-19T00:22:00;99352.31;;;19.73;91.38
54361;BME280;40258;53.936;27.540;2022-08-19T00:24:31;99351.16;;;19.74;91.31
54361;BME280;40258;53.936;27.540;2022-08-19T00:27:00;99340.13;;;19.74;91.63
54361;BME280;40258;53.936;27.540;2022-08-19T00:29:29;99344.06;;;19.73;91.59
54361;BME280;40258;53.936;27.540;2022-08-19T00:31:58;99344.03;;;19.70;91.86
54361;BME280;40258;53.936;27.540;2022-08-19T00:34:27;99351.47;;;19.69;92.16
54361;BME280;40258;53.936;27.540;2022-08-19T00:36:57;99352.22;;;19.66;92.33
54361;BME280;40258;53.936;27.540;2022-08-19T00:39:26;99350.56;;;19.58;92.21
54361;BME280;40258;53.936;27.540;2022-08-19T00:41:56;99362.19;;;19.44;92.85
54361;BME280;40258;53.936;27.540;2022-08-19T00:44:28;99355.91;;;19.44;92.68
54361;BME280;40258;53.936;27.540;2022-08-19T00:46:58;99348.50;;;19.48;92.06
54361;BME280;40258;53.936;27.540;2022-08-19T00:49:32;99358.34;;;19.52;92.07
54361;BME280;40258;53.936;27.540;2022-08-19T00:52:07;99361.47;;;19.51;92.02
54361;BME280;40258;53.936;27.540;2022-08-19T00:54:38;99354.41;;;19.50;91.51
54361;BME280;40258;53.936;27.540;2022-08-19T00:57:14;99355.16;;;19.47;92.38
54361;BME280;40258;53.936;27.540;2022-08-19T00:59:46;99361.75;;;19.38;92.92
54361;BME280;40258;53.936;27.540;2022-08-19T01:02:16;99352.53;;;19.27;93.92
54361;BME280;40258;53.936;27.540;2022-08-19T01:04:45;99352.53;;;19.27;94.05
54361;BME280;40258;53.936;27.540;2022-08-19T01:07:15;99343.88;;;19.25;94.16
54361;BME280;40258;53.936;27.540;2022-08-19T01:09:44;99349.22;;;19.11;94.51
54361;BME280;40258;53.936;27.540;2022-08-19T01:12:15;99348.25;;;18.99;95.29
54361;BME280;40258;53.936;27.540;2022-08-19T01:14:45;99354.41;;;18.89;95.72
54361;BME280;40258;53.936;27.540;2022-08-19T01:17:15;99354.97;;;18.75;97.12
54361;BME280;40258;53.936;27.540;2022-08-19T01:19:46;99350.03;;;18.61;98.39
54361;BME280;40258;53.936;27.540;2022-08-19T01:22:25;99349.91;;;18.54;99.24
54361;BME280;40258;53.936;27.540;2022-08-19T01:24:55;99347.81;;;18.44;100.00
54361;BME280;40258;53.936;27.540;2022-08-19T01:27:23;99348.13;;;18.39;100.00
54361;BME280;40258;53.936;27.540;2022-08-19T01:29:52;99351.28;;;18.41;100.00
54361;BME280;40258;53.936;27.540;2022-08-19T01:32:20;99346.59;;;18.41;100.00
54361;BME280;40258;53.936;27.540;2022-08-19T01:34:49;99348.97;;;18.43;100.00
54361;BME280;40258;53.936;27.540;2022-08-19T01:37:17;99344.22;;;18.40;100.00
54361;BME280;40258;53.936;27.540;2022-08-19T01:39:48;99341.78;;;18.35;100.00
54361;BME280;40258;53.936;27.540;2022-08-19T01:42:17;99351.47;;;18.28;100.00
54361;BME280;40258;53.936;27.540;2022-08-19T01:44:46;99353.81;;;18.26;100.00
54361;BME280;40258;53.936;27.540;2022-08-19T01:47:15;99351.81;;;18.23;100.00
54361;BME280;40258;53.936;27.540;2022-08-19T01:49:44;99352.63;;;18.27;100.00
54361;BME280;40258;53.936;27.540;2022-08-19T01:52:13;99354.72;;;18.34;100.00
54361;BME280;40258;53.936;27.540;2022-08-19T01:54:41;99354.38;;;18.36;100.00
54361;BME280;40258;53.936;27.540;2022-08-19T01:57:13;99356.75;;;18.37;100.00
54361;BME280;40258;53.936;27.540;2022-08-19T01:59:43;99362.28;;;18.41;100.00
54361;BME280;40258;53.936;27.540;2022-08-19T02:02:13;99366.13;;;18.36;100.00
54361;BME280;40258;53.936;27.540;2022-08-19T02:04:41;99372.19;;;18.22;100.00
54361;BME280;40258;53.936;27.540;2022-08-19T02:07:10;99366.25;;;18.20;100.00
54361;BME280;40258;53.936;27.540;2022-08-19T02:09:39;99360.31;;;18.18;100.00
54361;BME280;40258;53.936;27.540;2022-08-19T02:12:08;99355.66;;;18.19;100.00
54361;BME280;40258;53.936;27.540;2022-08-19T02:14:38;99361.94;;;18.19;100.00
54361;BME280;40258;53.936;27.540;2022-08-19T02:17:06;99359.59;;;18.21;100.00
54361;BME280;40258;53.936;27.540;2022-08-19T02:19:35;99361.97;;;18.23;100.00
54361;BME280;40258;53.936;27.540;2022-08-19T02:22:04;99363.88;;;18.19;100.00
54361;BME280;40258;53.936;27.540;2022-08-19T02:24:33;99354.78;;;18.14;100.00
54361;BME280;40258;53.936;27.540;2022-08-19T02:27:02;99371.19;;;18.11;100.00
54361;BME280;40258;53.936;27.540;2022-08-19T02:29:31;99361.72;;;18.08;100.00
54361;BME280;40258;53.936;27.540;2022-08-19T02:32:01;99356.97;;;18.05;100.00
54361;BME280;40258;53.936;27.540;2022-08-19T02:34:31;99360.03;;;18.00;100.00
54361;BME280;40258;53.936;27.540;2022-08-19T02:37:00;99363.91;;;17.99;100.00
54361;BME280;40258;53.936;27.540;2022-08-19T02:39:28;99365.44;;;17.96;100.00
54361;BME280;40258;53.936;27.540;2022-08-19T02:41:56;99363.00;;;17.91;100.00
54361;BME280;40258;53.936;27.540;2022-08-19T02:44:26;99364.59;;;17.92;100.00
54361;BME280;40258;53.936;27.540;2022-08-19T02:46:55;99363.06;;;17.95;100.00
54361;BME280;40258;53.936;27.540;2022-08-19T02:49:25;99362.28;;;17.94;100.00
54361;BME280;40258;53.936;27.540;2022-08-19T02:51:53;99353.63;;;17.92;100.00
54361;BME280;40258;53.936;27.540;2022-08-19T02:54:22;99356.78;;;17.94;100.00
54361;BME280;40258;53.936;27.540;2022-08-19T02:56:50;99355.19;;;17.93;100.00
54361;BME280;40258;53.936;27.540;2022-08-19T02:59:19;99363.91;;;17.99;100.00
54361;BME280;40258;53.936;27.540;2022-08-19T03:01:48;99370.13;;;17.96;100.00
54361;BME280;40258;53.936;27.540;2022-08-19T03:04:17;99364.72;;;18.00;100.00
54361;BME280;40258;53.936;27.540;2022-08-19T03:06:47;99369.56;;;18.06;100.00
54361;BME280;40258;53.936;27.540;2022-08-19T03:09:19;99374.38;;;18.13;100.00
54361;BME280;40258;53.936;27.540;2022-08-19T03:11:48;99380.72;;;18.17;100.00
54361;BME280;40258;53.936;27.540;2022-08-19T03:14:17;99384.63;;;18.16;100.00
54361;BME280;40258;53.936;27.540;2022-08-19T03:16:48;99381.56;;;18.21;100.00
54361;BME280;40258;53.936;27.540;2022-08-19T03:19:19;99380.84;;;18.24;100.00
54361;BME280;40258;53.936;27.540;2022-08-19T03:21:50;99383.28;;;18.29;100.00
54361;BME280;40258;53.936;27.540;2022-08-19T03:24:19;99387.31;;;18.36;100.00
54361;BME280;40258;53.936;27.540;2022-08-19T03:26:50;99381.84;;;18.36;100.00
54361;BME280;40258;53.936;27.540;2022-08-19T03:29:19;99385.00;;;18.38;100.00
54361;BME280;40258;53.936;27.540;2022-08-19T03:31:48;99392.19;;;18.46;100.00
54361;BME280;40258;53.936;27.540;2022-08-19T03:34:22;99381.38;;;18.57;100.00
54361;BME280;40258;53.936;27.540;2022-08-19T03:36:55;99383.94;;;18.69;100.00
54361;BME280;40258;53.936;27.540;2022-08-19T03:39:25;99399.72;;;18.76;100.00
54361;BME280;40258;53.936;27.540;2022-08-19T03:41:55;99403.22;;;18.73;100.00
54361;BME280;40258;53.936;27.540;2022-08-19T03:44:25;99396.69;;;18.81;100.00
54361;BME280;40258;53.936;27.540;2022-08-19T03:46:56;99407.38;;;18.86;100.00
54361;BME280;40258;53.936;27.540;2022-08-19T03:49:28;99405.91;;;18.92;100.00
54361;BME280;40258;53.936;27.540;2022-08-19T03:51:59;99403.25;;;18.99;100.00
54361;BME280;40258;53.936;27.540;2022-08-19T03:54:29;99416.38;;;19.10;100.00
54361;BME280;40258;53.936;27.540;2022-08-19T03:56:58;99412.03;;;19.09;100.00
54361;BME280;40258;53.936;27.540;2022-08-19T03:59:30;99412.13;;;19.16;100.00
54361;BME280;40258;53.936;27.540;2022-08-19T04:02:05;99416.47;;;19.17;100.00
54361;BME280;40258;53.936;27.540;2022-08-19T04:04:36;99413.06;;;19.27;100.00
54361;BME280;40258;53.936;27.540;2022-08-19T04:07:07;99421.94;;;19.44;98.49
54361;BME280;40258;53.936;27.540;2022-08-19T04:09:37;99415.78;;;19.54;97.67
54361;BME280;40258;53.936;27.540;2022-08-19T04:12:07;99416.72;;;19.65;96.60
54361;BME280;40258;53.936;27.540;2022-08-19T04:14:36;99414.53;;;19.78;94.90
54361;BME280;40258;53.936;27.540;2022-08-19T04:17:05;99415.50;;;19.93;93.63
54361;BME280;40258;53.936;27.540;2022-08-19T04:19:35;99424.34;;;20.13;91.96
54361;BME280;40258;53.936;27.540;2022-08-19T04:22:06;99423.75;;;20.31;89.80
54361;BME280;40258;53.936;27.540;2022-08-19T04:24:36;99425.38;;;20.35;87.17
54361;BME280;40258;53.936;27.540;2022-08-19T04:27:05;99435.41;;;20.58;85.36
54361;BME280;40258;53.936;27.540;2022-08-19T04:29:33;99436.34;;;20.73;84.22
54361;BME280;40258;53.936;27.540;2022-08-19T04:32:03;99432.91;;;20.87;83.06
54361;BME280;40258;53.936;27.540;2022-08-19T04:34:32;99448.78;;;21.00;81.73
54361;BME280;40258;53.936;27.540;2022-08-19T04:37:01;99434.63;;;21.06;80.34
54361;BME280;40258;53.936;27.540;2022-08-19T04:39:31;99434.25;;;21.14;80.04
54361;BME280;40258;53.936;27.540;2022-08-19T04:42:18;99436.34;;;21.32;78.86
54361;BME280;40258;53.936;27.540;2022-08-19T04:45:00;99441.84;;;21.28;78.02
54361;BME280;40258;53.936;27.540;2022-08-19T04:47:30;99447.41;;;21.32;77.01
54361;BME280;40258;53.936;27.540;2022-08-19T04:49:59;99444.84;;;21.68;76.21
54361;BME280;40258;53.936;27.540;2022-08-19T04:52:28;99448.38;;;21.65;74.61
54361;BME280;40258;53.936;27.540;2022-08-19T04:54:59;99446.06;;;21.74;75.04
54361;BME280;40258;53.936;27.540;2022-08-19T04:57:28;99451.19;;;21.83;74.25
54361;BME280;40258;53.936;27.540;2022-08-19T04:59:57;99454.00;;;21.86;74.06
54361;BME280;40258;53.936;27.540;2022-08-19T05:02:25;99450.84;;;21.92;73.79
54361;BME280;40258;53.936;27.540;2022-08-19T05:04:57;99443.75;;;22.01;73.42
54361;BME280;40258;53.936;27.540;2022-08-19T05:07:28;99437.09;;;22.13;72.52
54361;BME280;40258;53.936;27.540;2022-08-19T05:09:59;99446.59;;;22.19;71.86
54361;BME280;40258;53.936;27.540;2022-08-19T05:12:27;99441.50;;;22.36;70.98
54361;BME280;40258;53.936;27.540;2022-08-19T05:14:57;99441.13;;;22.55;70.27
54361;BME280;40258;53.936;27.540;2022-08-19T05:17:27;99447.06;;;22.68;69.50
54361;BME280;40258;53.936;27.540;2022-08-19T05:19:57;99438.38;;;22.63;69.23
54361;BME280;40258;53.936;27.540;2022-08-19T05:22:43;99441.53;;;22.61;67.44
54361;BME280;40258;53.936;27.540;2022-08-19T05:25:18;99445.88;;;22.91;67.32
54361;BME280;40258;53.936;27.540;2022-08-19T05:27:47;99460.50;;;22.98;67.39
54361;BME280;40258;53.936;27.540;2022-08-19T05:30:17;99458.91;;;22.90;66.41
54361;BME280;40258;53.936;27.540;2022-08-19T05:32:45;99462.88;;;22.93;66.52
54361;BME280;40258;53.936;27.540;2022-08-19T05:35:14;99461.25;;;23.03;65.84
54361;BME280;40258;53.936;27.540;2022-08-19T05:37:43;99455.69;;;23.39;64.65
54361;BME280;40258;53.936;27.540;2022-08-19T05:40:13;99452.94;;;23.39;64.33
54361;BME280;40258;53.936;27.540;2022-08-19T05:42:41;99450.47;;;23.66;63.70
54361;BME280;40258;53.936;27.540;2022-08-19T05:45:10;99451.25;;;23.74;62.90
54361;BME280;40258;53.936;27.540;2022-08-19T05:47:39;99448.41;;;23.92;62.42
54361;BME280;40258;53.936;27.540;2022-08-19T05:50:08;99446.81;;;23.94;61.53
54361;BME280;40258;53.936;27.540;2022-08-19T05:52:38;99449.13;;;24.07;60.93
54361;BME280;40258;53.936;27.540;2022-08-19T05:55:08;99439.66;;;24.00;60.27
54361;BME280;40258;53.936;27.540;2022-08-19T05:57:38;99443.56;;;24.14;59.82
54361;BME280;40258;53.936;27.540;2022-08-19T06:00:08;99442.69;;;24.24;59.58
54361;BME280;40258;53.936;27.540;2022-08-19T06:02:39;99448.53;;;24.37;59.08
54361;BME280;40258;53.936;27.540;2022-08-19T06:05:10;99446.09;;;24.46;58.30
54361;BME280;40258;53.936;27.540;2022-08-19T06:07:39;99440.91;;;24.52;58.94
54361;BME280;40258;53.936;27.540;2022-08-19T06:10:10;99440.91;;;24.59;57.94
54361;BME280;40258;53.936;27.540;2022-08-19T06:12:40;99438.91;;;24.56;57.10
54361;BME280;40258;53.936;27.540;2022-08-19T06:15:12;99447.97;;;24.67;57.68
54361;BME280;40258;53.936;27.540;2022-08-19T06:17:42;99445.63;;;24.58;57.17
54361;BME280;40258;53.936;27.540;2022-08-19T06:20:14;99444.03;;;24.61;57.88
54361;BME280;40258;53.936;27.540;2022-08-19T06:22:47;99451.19;;;24.62;57.49
54361;BME280;40258;53.936;27.540;2022-08-19T06:25:17;99449.28;;;24.45;58.79
54361;BME280;40258;53.936;27.540;2022-08-19T06:27:47;99448.22;;;24.24;58.51
54361;BME280;40258;53.936;27.540;2022-08-19T06:30:16;99448.69;;;24.15;59.13
54361;BME280;40258;53.936;27.540;2022-08-19T06:32:44;99452.19;;;24.23;57.84
54361;BME280;40258;53.936;27.540;2022-08-19T06:35:13;99445.81;;;24.30;58.23
54361;BME280;40258;53.936;27.540;2022-08-19T06:37:41;99440.38;;;24.12;58.49
54361;BME280;40258;53.936;27.540;2022-08-19T06:40:11;99444.22;;;24.32;57.73
54361;BME280;40258;53.936;27.540;2022-08-19T06:42:40;99455.16;;;24.54;57.52
54361;BME280;40258;53.936;27.540;2022-08-19T06:45:10;99457.28;;;24.88;56.56
54361;BME280;40258;53.936;27.540;2022-08-19T06:47:39;99453.19;;;25.03;55.05
54361;BME280;40258;53.936;27.540;2022-08-19T06:50:13;99456.63;;;25.18;55.32
54361;BME280;40258;53.936;27.540;2022-08-19T06:52:42;99443.09;;;25.62;54.33
54361;BME280;40258;53.936;27.540;2022-08-19T06:55:11;99449.84;;;25.61;51.85
54361;BME280;40258;53.936;27.540;2022-08-19T06:57:39;99454.78;;;25.80;50.46
54361;BME280;40258;53.936;27.540;2022-08-19T07:00:12;99459.09;;;25.81;50.97
54361;BME280;40258;53.936;27.540;2022-08-19T07:02:41;99463.25;;;26.00;50.62
54361;BME280;40258;53.936;27.540;2022-08-19T07:05:10;99458.25;;;26.19;49.91
54361;BME280;40258;53.936;27.540;2022-08-19T07:07:38;99454.06;;;26.07;49.41
54361;BME280;40258;53.936;27.540;2022-08-19T07:10:10;99454.50;;;26.02;48.89
54361;BME280;40258;53.936;27.540;2022-08-19T07:12:38;99454.34;;;26.13;48.85
54361;BME280;40258;53.936;27.540;2022-08-19T07:15:11;99450.13;;;26.32;48.18
54361;BME280;40258;53.936;27.540;2022-08-19T07:17:40;99454.63;;;26.49;48.14
54361;BME280;40258;53.936;27.540;2022-08-19T07:20:11;99453.22;;;26.61;47.51
54361;BME280;40258;53.936;27.540;2022-08-19T07:22:40;99452.72;;;26.94;47.68
54361;BME280;40258;53.936;27.540;2022-08-19T07:25:10;99448.78;;;26.91;45.78
54361;BME280;40258;53.936;27.540;2022-08-19T07:27:40;99456.31;;;26.43;46.48
54361;BME280;40258;53.936;27.540;2022-08-19T07:30:11;99457.69;;;26.55;45.31
54361;BME280;40258;53.936;27.540;2022-08-19T07:32:40;99452.25;;;26.75;45.11
54361;BME280;40258;53.936;27.540;2022-08-19T07:35:10;99451.38;;;27.02;44.91
54361;BME280;40258;53.936;27.540;2022-08-19T07:37:38;99451.16;;;27.16;44.15
54361;BME280;40258;53.936;27.540;2022-08-19T07:40:12;99444.56;;;27.26;44.08
54361;BME280;40258;53.936;27.540;2022-08-19T07:42:41;99450.50;;;27.52;43.95
54361;BME280;40258;53.936;27.540;2022-08-19T07:45:11;99447.63;;;27.76;43.30
54361;BME280;40258;53.936;27.540;2022-08-19T07:47:42;99447.19;;;27.57;42.26
54361;BME280;40258;53.936;27.540;2022-08-19T07:50:12;99447.91;;;27.61;42.22
54361;BME280;40258;53.936;27.540;2022-08-19T07:52:41;99436.69;;;27.45;41.92
54361;BME280;40258;53.936;27.540;2022-08-19T07:55:11;99439.56;;;27.41;42.94
54361;BME280;40258;53.936;27.540;2022-08-19T07:57:40;99446.63;;;27.46;43.05
54361;BME280;40258;53.936;27.540;2022-08-19T08:00:11;99448.47;;;27.33;43.00
54361;BME280;40258;53.936;27.540;2022-08-19T08:02:40;99443.03;;;27.25;43.18
54361;BME280;40258;53.936;27.540;2022-08-19T08:05:09;99446.00;;;27.58;42.79
54361;BME280;40258;53.936;27.540;2022-08-19T08:07:56;99448.34;;;27.80;42.36
54361;BME280;40258;53.936;27.540;2022-08-19T08:10:42;99440.34;;;27.62;41.93
54361;BME280;40258;53.936;27.540;2022-08-19T08:13:11;99444.94;;;27.89;40.73
54361;BME280;40258;53.936;27.540;2022-08-19T08:15:41;99433.88;;;27.85;40.58
54361;BME280;40258;53.936;27.540;2022-08-19T08:18:11;99437.53;;;28.02;40.56
54361;BME280;40258;53.936;27.540;2022-08-19T08:20:40;99439.72;;;28.11;41.26
54361;BME280;40258;53.936;27.540;2022-08-19T08:23:08;99436.44;;;28.16;39.78
54361;BME280;40258;53.936;27.540;2022-08-19T08:25:55;99432.59;;;27.90;39.41
54361;BME280;40258;53.936;27.540;2022-08-19T08:28:26;99428.44;;;27.98;39.52
54361;BME280;40258;53.936;27.540;2022-08-19T08:30:58;99429.59;;;28.01;40.44
54361;BME280;40258;53.936;27.540;2022-08-19T08:33:28;99439.03;;;28.07;39.69
54361;BME280;40258;53.936;27.540;2022-08-19T08:35:58;99439.88;;;28.04;40.48
54361;BME280;40258;53.936;27.540;2022-08-19T08:38:26;99444.41;;;28.14;40.45
54361;BME280;40258;53.936;27.540;2022-08-19T08:41:02;99440.97;;;28.43;40.30
54361;BME280;40258;53.936;27.540;2022-08-19T08:43:37;99444.66;;;28.89;38.12
54361;BME280;40258;53.936;27.540;2022-08-19T08:46:23;99442.00;;;29.15;37.78
54361;BME280;40258;53.936;27.540;2022-08-19T08:49:02;99437.97;;;29.16;36.57
54361;BME280;40258;53.936;27.540;2022-08-19T08:51:37;99447.53;;;29.02;36.98
54361;BME280;40258;53.936;27.540;2022-08-19T08:54:10;99444.81;;;28.98;38.24
54361;BME280;40258;53.936;27.540;2022-08-19T08:56:40;99446.00;;;29.14;36.86
54361;BME280;40258;53.936;27.540;2022-08-19T08:59:20;99439.75;;;29.10;37.17
54361;BME280;40258;53.936;27.540;2022-08-19T09:01:51;99439.53;;;29.17;36.24
54361;BME280;40258;53.936;27.540;2022-08-19T09:04:20;99436.00;;;29.00;37.19
54361;BME280;40258;53.936;27.540;2022-08-19T09:06:55;99431.34;;;29.26;36.08
54361;BME280;40258;53.936;27.540;2022-08-19T09:09:30;99429.34;;;29.27;36.66
54361;BME280;40258;53.936;27.540;2022-08-19T09:12:09;99436.41;;;29.31;35.71
54361;BME280;40258;53.936;27.540;2022-08-19T09:14:48;99426.91;;;29.42;35.74
54361;BME280;40258;53.936;27.540;2022-08-19T09:17:22;99434.81;;;29.72;35.82
54361;BME280;40258;53.936;27.540;2022-08-19T09:20:00;99433.59;;;29.73;35.42
54361;BME280;40258;53.936;27.540;2022-08-19T09:22:32;99440.28;;;29.63;36.12
54361;BME280;40258;53.936;27.540;2022-08-19T09:25:02;99438.78;;;29.46;36.98
54361;BME280;40258;53.936;27.540;2022-08-19T09:27:31;99426.84;;;29.58;37.74
54361;BME280;40258;53.936;27.540;2022-08-19T09:30:00;99432.97;;;29.53;37.47
54361;BME280;40258;53.936;27.540;2022-08-19T09:32:30;99416.84;;;29.31;38.13
54361;BME280;40258;53.936;27.540;2022-08-19T09:34:59;99416.31;;;28.91;39.21
54361;BME280;40258;53.936;27.540;2022-08-19T09:37:28;99416.59;;;28.80;40.15
54361;BME280;40258;53.936;27.540;2022-08-19T09:39:57;99411.59;;;28.88;40.33
54361;BME280;40258;53.936;27.540;2022-08-19T09:42:26;99413.25;;;28.85;40.26
54361;BME280;40258;53.936;27.540;2022-08-19T09:44:54;99415.03;;;29.08;40.27
54361;BME280;40258;53.936;27.540;2022-08-19T09:47:23;99426.97;;;29.25;39.14
54361;BME280;40258;53.936;27.540;2022-08-19T09:49:53;99414.09;;;28.98;40.36
54361;BME280;40258;53.936;27.540;2022-08-19T09:52:21;99420.56;;;29.41;40.85
54361;BME280;40258;53.936;27.540;2022-08-19T09:54:52;99421.72;;;29.27;40.55
54361;BME280;40258;53.936;27.540;2022-08-19T09:57:21;99411.44;;;29.24;41.92
54361;BME280;40258;53.936;27.540;2022-08-19T09:59:50;99422.50;;;29.28;41.80
54361;BME280;40258;53.936;27.540;2022-08-19T10:02:20;99418.47;;;29.58;41.56
54361;BME280;40258;53.936;27.540;2022-08-19T10:04:49;99412.59;;;29.39;41.68
54361;BME280;40258;53.936;27.540;2022-08-19T10:07:37;99420.44;;;29.87;40.57
54361;BME280;40258;53.936;27.540;2022-08-19T10:10:07;99423.72;;;29.98;38.66
54361;BME280;40258;53.936;27.540;2022-08-19T10:12:36;99422.94;;;29.68;39.50
54361;BME280;40258;53.936;27.540;2022-08-19T10:15:06;99423.47;;;29.50;38.04
54361;BME280;40258;53.936;27.540;2022-08-19T10:17:35;99429.19;;;29.47;39.91
54361;BME280;40258;53.936;27.540;2022-08-19T10:20:05;99425.38;;;29.40;40.43
54361;BME280;40258;53.936;27.540;2022-08-19T10:22:34;99427.00;;;29.67;40.16
54361;BME280;40258;53.936;27.540;2022-08-19T10:25:08;99416.31;;;29.49;39.80
54361;BME280;40258;53.936;27.540;2022-08-19T10:27:36;99419.00;;;29.53;40.38
54361;BME280;40258;53.936;27.540;2022-08-19T10:30:07;99419.56;;;29.48;40.77
54361;BME280;40258;53.936;27.540;2022-08-19T10:32:36;99414.19;;;29.40;41.24
54361;BME280;40258;53.936;27.540;2022-08-19T10:35:05;99421.53;;;29.34;42.50
54361;BME280;40258;53.936;27.540;2022-08-19T10:37:36;99419.28;;;29.29;42.99
54361;BME280;40258;53.936;27.540;2022-08-19T10:40:08;99415.16;;;29.34;42.03
54361;BME280;40258;53.936;27.540;2022-08-19T10:42:38;99410.63;;;29.53;41.76
54361;BME280;40258;53.936;27.540;2022-08-19T10:45:07;99408.03;;;29.88;41.65
54361;BME280;40258;53.936;27.540;2022-08-19T10:47:36;99400.81;;;29.61;42.54
54361;BME280;40258;53.936;27.540;2022-08-19T10:50:06;99400.63;;;30.20;41.78
54361;BME280;40258;53.936;27.540;2022-08-19T10:52:53;99396.38;;;30.54;39.22
54361;BME280;40258;53.936;27.540;2022-08-19T10:55:24;99401.31;;;30.50;39.46
54361;BME280;40258;53.936;27.540;2022-08-19T10:58:11;99408.59;;;30.95;39.80
54361;BME280;40258;53.936;27.540;2022-08-19T11:00:41;99406.44;;;31.34;38.87
54361;BME280;40258;53.936;27.540;2022-08-19T11:03:11;99413.75;;;31.53;38.88
54361;BME280;40258;53.936;27.540;2022-08-19T11:05:39;99414.03;;;30.76;39.41
54361;BME280;40258;53.936;27.540;2022-08-19T11:08:08;99406.97;;;30.72;39.97
54361;BME280;40258;53.936;27.540;2022-08-19T11:10:43;99412.63;;;30.94;39.40
54361;BME280;40258;53.936;27.540;2022-08-19T11:13:11;99413.19;;;31.24;38.68
54361;BME280;40258;53.936;27.540;2022-08-19T11:15:40;99418.88;;;30.63;39.66
54361;BME280;40258;53.936;27.540;2022-08-19T11:18:09;99414.31;;;30.43;40.15
54361;BME280;40258;53.936;27.540;2022-08-19T11:20:37;99413.84;;;30.58;39.96
54361;BME280;40258;53.936;27.540;2022-08-19T11:23:06;99414.94;;;30.73;39.77
54361;BME280;40258;53.936;27.540;2022-08-19T11:25:34;99423.47;;;30.57;40.44
54361;BME280;40258;53.936;27.540;2022-08-19T11:28:07;99416.97;;;30.60;40.58
54361;BME280;40258;53.936;27.540;2022-08-19T11:30:37;99418.28;;;30.81;39.42
54361;BME280;40258;53.936;27.540;2022-08-19T11:33:06;99418.53;;;30.96;38.64
54361;BME280;40258;53.936;27.540;2022-08-19T11:35:39;99421.31;;;30.74;38.02
54361;BME280;40258;53.936;27.540;2022-08-19T11:38:08;99420.41;;;30.77;37.59
54361;BME280;40258;53.936;27.540;2022-08-19T11:40:36;99419.72;;;31.21;37.79
54361;BME280;40258;53.936;27.540;2022-08-19T11:43:07;99418.81;;;30.89;37.67
54361;BME280;40258;53.936;27.540;2022-08-19T11:45:36;99426.06;;;30.99;37.03
54361;BME280;40258;53.936;27.540;2022-08-19T11:48:05;99421.66;;;30.63;38.38
54361;BME280;40258;53.936;27.540;2022-08-19T11:50:33;99408.81;;;30.53;38.68
54361;BME280;40258;53.936;27.540;2022-08-19T11:53:02;99406.59;;;30.22;39.23
54361;BME280;40258;53.936;27.540;2022-08-19T11:55:31;99398.66;;;30.81;38.56
54361;BME280;40258;53.936;27.540;2022-08-19T11:57:59;99411.56;;;30.78;37.98
54361;BME280;40258;53.936;27.540;2022-08-19T12:00:30;99410.19;;;30.48;38.70
54361;BME280;40258;53.936;27.540;2022-08-19T12:02:58;99411.97;;;31.03;38.61
54361;BME280;40258;53.936;27.540;2022-08-19T12:05:27;99400.22;;;31.39;37.76
54361;BME280;40258;53.936;27.540;2022-08-19T12:07:56;99399.56;;;31.79;36.58
54361;BME280;40258;53.936;27.540;2022-08-19T12:10:24;99411.75;;;30.97;37.13
54361;BME280;40258;53.936;27.540;2022-08-19T12:12:53;99406.66;;;30.57;38.54
54361;BME280;40258;53.936;27.540;2022-08-19T12:15:22;99402.91;;;31.21;37.95
54361;BME280;40258;53.936;27.540;2022-08-19T12:17:52;99386.56;;;31.72;37.84
54361;BME280;40258;53.936;27.540;2022-08-19T12:20:24;99396.38;;;31.68;37.60
54361;BME280;40258;53.936;27.540;2022-08-19T12:22:53;99394.47;;;31.43;36.39
54361;BME280;40258;53.936;27.540;2022-08-19T12:25:21;99387.78;;;31.40;37.13
54361;BME280;40258;53.936;27.540;2022-08-19T12:27:50;99393.34;;;31.84;37.31
54361;BME280;40258;53.936;27.540;2022-08-19T12:30:19;99392.06;;;31.76;37.14
54361;BME280;40258;53.936;27.540;2022-08-19T12:32:47;99394.16;;;32.35;37.47
54361;BME280;40258;53.936;27.540;2022-08-19T12:35:18;99403.28;;;32.57;36.59
54361;BME280;40258;53.936;27.540;2022-08-19T12:37:47;99391.28;;;32.07;37.22
54361;BME280;40258;53.936;27.540;2022-08-19T12:40:16;99389.47;;;32.32;37.37
54361;BME280;40258;53.936;27.540;2022-08-19T12:42:46;99394.03;;;31.44;38.53
54361;BME280;40258;53.936;27.540;2022-08-19T12:45:18;99401.88;;;30.44;40.73
54361;BME280;40258;53.936;27.540;2022-08-19T12:47:47;99410.16;;;29.42;43.00
54361;BME280;40258;53.936;27.540;2022-08-19T12:50:17;99397.28;;;29.31;44.30
54361;BME280;40258;53.936;27.540;2022-08-19T12:52:48;99396.09;;;28.99;44.80
54361;BME280;40258;53.936;27.540;2022-08-19T12:55:17;99392.59;;;29.12;44.52
54361;BME280;40258;53.936;27.540;2022-08-19T12:57:46;99397.84;;;29.10;44.56
54361;BME280;40258;53.936;27.540;2022-08-19T13:00:18;99399.03;;;28.79;45.06
54361;BME280;40258;53.936;27.540;2022-08-19T13:02:50;99386.03;;;28.40;46.26
54361;BME280;40258;53.936;27.540;2022-08-19T13:05:24;99398.25;;;28.79;45.06